Time;durP1;ratioP1;P1;durP2;ratioP2;P2;SDS_P1;SDS_P2;PMS_P1;PMS_P2;Temp;Humidity;BMP_temperature;BMP_pressure;BME280_temperature;BME280_humidity;BME280_pressure;Samples;Min_cycle;Max_cycle;Signal;HPM_P1;HPM_P2
2022/01/29 00:02:09;;;;;;;;;;;4.40;97.20;;;3.89;100.00;100785.66;5075923;28;20374;-59
2022/01/29 00:04:35;;;;;;;;;;;4.30;97.20;;;3.87;100.00;100774.63;5058347;28;19921;-59
2022/01/29 00:07:01;;;;;;;;;;;4.40;97.20;;;3.90;100.00;100786.50;5057877;28;20288;-59
2022/01/29 00:09:26;;;;;;;;;;;4.40;97.10;;;3.82;100.00;100784.97;5075779;28;19962;-59
2022/01/29 00:11:52;;;;;;;;;;;4.30;97.10;;;3.91;100.00;100780.53;5075960;28;20369;-59
2022/01/29 00:14:18;;;;;;;;;;;4.30;97.20;;;3.49;100.00;100718.50;5075903;28;19927;-59
2022/01/29 00:16:44;;;;;;;;;;;4.30;97.20;;;3.79;100.00;100768.88;5075958;28;19958;-59
2022/01/29 00:19:10;;;;;;;;;;;4.30;97.30;;;3.87;100.00;100784.03;5075279;28;20050;-58
2022/01/29 00:21:35;;;;;;;;;;;4.30;97.20;;;3.82;100.00;100762.00;5057747;28;19924;-58
2022/01/29 00:24:01;;;;;;;;;;;4.30;97.00;;;3.89;100.00;100775.44;5057751;28;19932;-58
2022/01/29 00:26:28;;;;;;;;;;;4.40;96.80;;;3.88;100.00;100776.31;5075369;28;19924;-59
2022/01/29 00:28:55;;;;;;;;;;;4.40;96.80;;;3.76;100.00;100774.06;5075628;28;19966;-59
2022/01/29 00:31:21;;;;;;;;;;;4.30;96.90;;;3.80;100.00;100773.94;5057541;28;20280;-59
2022/01/29 00:33:46;;;;;;;;;;;4.20;97.00;;;3.77;100.00;100770.63;5075622;28;19925;-59
2022/01/29 00:36:12;;;;;;;;;;;4.20;97.10;;;3.74;100.00;100758.78;5057364;28;19920;-59
2022/01/29 00:38:38;;;;;;;;;;;4.20;97.30;;;3.43;100.00;100745.84;5075085;28;19921;-59
2022/01/29 00:41:04;;;;;;;;;;;4.20;97.40;;;3.38;100.00;100747.63;5075298;28;19925;-73
2022/01/29 00:43:29;;;;;;;;;;;4.20;97.10;;;3.33;100.00;100687.41;5075449;28;20284;-59
2022/01/29 00:45:55;;;;;;;;;;;4.10;97.20;;;3.70;100.00;100730.81;5075255;28;19965;-59
2022/01/29 00:48:21;;;;;;;;;;;4.10;97.40;;;3.56;100.00;100722.59;5057188;28;19917;-59
2022/01/29 00:50:47;;;;;;;;;;;4.10;97.60;;;3.40;100.00;100694.03;5075113;28;20393;-59
2022/01/29 00:53:12;;;;;;;;;;;4.10;97.60;;;3.40;100.00;100701.69;5074918;28;19927;-58
2022/01/29 00:55:41;;;;;;;;;;;4.10;97.70;;;3.41;100.00;100696.56;5075113;28;19927;-59
2022/01/29 00:58:07;;;;;;;;;;;4.10;97.70;;;3.40;100.00;100714.44;5074646;28;19931;-59
2022/01/29 01:00:33;;;;;;;;;;;4.10;97.70;;;3.58;100.00;100748.94;5074595;28;19928;-59
2022/01/29 01:02:58;;;;;;;;;;;4.00;97.70;;;3.37;100.00;100715.38;5074904;28;20297;-59
2022/01/29 01:05:24;;;;;;;;;;;4.00;97.80;;;3.66;100.00;100747.91;5074370;28;19920;-59
2022/01/29 01:07:50;;;;;;;;;;;4.00;97.90;;;3.14;100.00;100704.78;5074859;28;19921;-58
2022/01/29 01:10:16;;;;;;;;;;;4.10;98.00;;;3.42;100.00;100741.63;5074484;28;19928;-59
2022/01/29 01:12:41;;;;;;;;;;;4.00;97.80;;;3.35;100.00;100736.69;5074656;28;19981;-59
2022/01/29 01:15:08;;;;;;;;;;;4.00;97.90;;;3.28;100.00;100714.72;5056529;28;20293;-60
2022/01/29 01:17:33;;;;;;;;;;;4.00;97.80;;;3.39;100.00;100713.59;5074533;28;19960;-59
2022/01/29 01:19:59;;;;;;;;;;;4.00;97.80;;;3.55;100.00;100729.41;5023771;28;20286;-59
2022/01/29 01:22:25;;;;;;;;;;;4.00;97.90;;;3.48;100.00;100732.97;5056350;28;19927;-59
2022/01/29 01:24:50;;;;;;;;;;;4.10;98.00;;;3.25;100.00;100700.31;5074744;28;19927;-59
2022/01/29 01:27:16;;;;;;;;;;;4.00;97.80;;;3.65;100.00;100746.22;5074248;28;19932;-58
2022/01/29 01:29:42;;;;;;;;;;;4.10;97.90;;;3.44;100.00;100714.38;5073623;28;19946;-58
2022/01/29 01:32:11;;;;;;;;;;;4.10;98.00;;;3.48;100.00;100720.22;5056026;28;20339;-60
2022/01/29 01:34:42;;;;;;;;;;;4.10;98.10;;;3.71;100.00;100763.94;5074433;28;20035;-59
2022/01/29 01:37:12;;;;;;;;;;;4.10;98.30;;;3.71;100.00;100768.19;5056708;28;19967;-62
2022/01/29 01:39:40;;;;;;;;;;;4.10;98.20;;;3.66;100.00;100752.16;5074020;28;20266;-58
2022/01/29 01:42:07;;;;;;;;;;;4.10;98.20;;;3.74;100.00;100752.81;5074183;28;19920;-58
2022/01/29 01:44:46;;;;;;;;;;;4.10;98.30;;;3.71;100.00;100750.31;5056682;28;19943;-59
2022/01/29 01:47:13;;;;;;;;;;;4.20;98.30;;;3.21;100.00;100741.22;5056282;28;19923;-59
2022/01/29 01:49:39;;;;;;;;;;;4.20;97.80;;;3.27;100.00;100695.19;5039784;28;19916;-59
2022/01/29 01:52:06;;;;;;;;;;;4.10;97.60;;;3.67;100.00;100743.63;5074054;28;19974;-58
2022/01/29 01:54:32;;;;;;;;;;;4.10;97.90;;;3.65;100.00;100722.41;5073705;28;19920;-59
2022/01/29 01:56:59;;;;;;;;;;;4.10;98.10;;;3.59;100.00;100705.53;5056118;28;19927;-59
2022/01/29 01:59:24;;;;;;;;;;;4.10;98.30;;;3.82;100.00;100739.00;5073779;28;19920;-59
2022/01/29 02:01:50;;;;;;;;;;;4.20;98.40;;;3.87;100.00;100728.69;5073930;28;19931;-59
2022/01/29 02:04:16;;;;;;;;;;;4.20;98.40;;;3.55;100.00;100718.38;5055786;28;19921;-59
2022/01/29 02:06:42;;;;;;;;;;;4.20;98.30;;;3.54;100.00;100709.88;5073828;28;19923;-58
2022/01/29 02:09:07;;;;;;;;;;;4.20;98.20;;;3.21;100.00;100651.97;5073841;28;19921;-59
2022/01/29 02:11:33;;;;;;;;;;;4.20;97.90;;;3.71;100.00;100709.50;5073586;28;19926;-59
2022/01/29 02:14:00;;;;;;;;;;;4.10;97.90;;;3.52;100.00;100693.78;5073641;28;19921;-59
2022/01/29 02:16:27;;;;;;;;;;;4.10;98.10;;;3.16;100.00;100662.25;5073352;28;19927;-59
2022/01/29 02:18:53;;;;;;;;;;;4.10;98.10;;;3.30;100.00;100703.59;5073792;28;19920;-59
2022/01/29 02:21:19;;;;;;;;;;;4.10;98.10;;;3.39;100.00;100682.16;5073466;28;20387;-59
2022/01/29 02:23:45;;;;;;;;;;;4.10;98.10;;;3.27;100.00;100688.38;5055692;28;19920;-59
2022/01/29 02:26:11;;;;;;;;;;;4.10;98.10;;;3.01;100.00;100665.97;5055561;28;20388;-63
2022/01/29 02:28:36;;;;;;;;;;;4.00;98.00;;;3.42;100.00;100667.63;5073149;28;19928;-60
2022/01/29 02:31:04;;;;;;;;;;;3.90;98.20;;;3.58;100.00;100670.66;5073651;28;19924;-59
2022/01/29 02:33:34;;;;;;;;;;;3.90;98.50;;;3.13;100.00;100578.16;5073379;28;19943;-59
2022/01/29 02:36:00;;;;;;;;;;;3.90;98.70;;;3.69;100.00;100655.94;5073593;28;19920;-59
2022/01/29 02:38:26;;;;;;;;;;;4.00;98.90;;;3.43;100.00;100597.88;5073257;28;19917;-59
2022/01/29 02:40:56;;;;;;;;;;;4.00;99.10;;;3.71;100.00;100648.22;5055370;28;19921;-59
2022/01/29 02:43:29;;;;;;;;;;;4.00;99.10;;;3.72;100.00;100643.09;5058266;28;19973;-59
2022/01/29 02:45:55;;;;;;;;;;;4.10;99.20;;;3.39;100.00;100595.41;5059755;28;19921;-59
2022/01/29 02:48:21;;;;;;;;;;;4.10;99.20;;;3.57;100.00;100617.09;5059699;28;19927;-59
2022/01/29 02:50:47;;;;;;;;;;;4.10;99.10;;;3.68;100.00;100627.91;5059630;28;19974;-59
2022/01/29 02:53:13;;;;;;;;;;;4.10;99.10;;;3.56;100.00;100621.38;5059422;28;19999;-60
2022/01/29 02:55:39;;;;;;;;;;;4.10;99.10;;;3.62;100.00;100605.09;5077531;28;19920;-59
2022/01/29 02:58:04;;;;;;;;;;;4.10;98.90;;;3.40;100.00;100607.31;5077488;28;20285;-59
2022/01/29 03:00:30;;;;;;;;;;;4.10;98.60;;;3.62;100.00;100610.19;5058722;28;19931;-59
2022/01/29 03:02:56;;;;;;;;;;;4.10;98.50;;;3.41;100.00;100553.69;5077573;28;20374;-59
2022/01/29 03:05:21;;;;;;;;;;;4.10;98.80;;;3.60;100.00;100583.88;5076979;28;19935;-59
2022/01/29 03:07:47;;;;;;;;;;;4.10;98.90;;;3.72;100.00;100593.75;5077117;28;19921;-59
2022/01/29 03:10:13;;;;;;;;;;;4.10;98.90;;;3.75;100.00;100589.44;5076870;28;19921;-72
2022/01/29 03:12:40;;;;;;;;;;;4.20;99.00;;;3.69;100.00;100569.19;5077018;28;20325;-59
2022/01/29 03:15:07;;;;;;;;;;;4.20;99.00;;;3.70;100.00;100580.22;5059321;28;19962;-59
2022/01/29 03:17:32;;;;;;;;;;;4.20;99.00;;;3.77;100.00;100585.13;5058744;28;20366;-59
2022/01/29 03:19:58;;;;;;;;;;;4.20;99.00;;;3.80;100.00;100592.69;5076845;28;19920;-59
2022/01/29 03:22:24;;;;;;;;;;;4.20;99.00;;;3.78;100.00;100585.97;5076616;28;19921;-59
2022/01/29 03:24:49;;;;;;;;;;;4.20;99.00;;;3.76;100.00;100587.72;5059018;28;20400;-59
2022/01/29 03:27:15;;;;;;;;;;;4.20;99.00;;;3.83;100.00;100599.44;5058726;28;19920;-59
2022/01/29 03:29:41;;;;;;;;;;;4.20;99.00;;;3.77;100.00;100585.13;5058201;28;20313;-59
2022/01/29 03:32:07;;;;;;;;;;;4.20;99.00;;;3.68;100.00;100587.06;5076790;28;19924;-58
2022/01/29 03:34:33;;;;;;;;;;;4.20;99.00;;;3.83;100.00;100595.19;5058504;28;19921;-59
2022/01/29 03:36:58;;;;;;;;;;;4.30;98.90;;;3.85;100.00;100590.03;5076485;28;20431;-58
2022/01/29 03:39:26;;;;;;;;;;;4.30;98.50;;;3.33;100.00;100525.00;5076031;28;19974;-59
2022/01/29 03:41:52;;;;;;;;;;;4.30;98.40;;;3.44;100.00;100538.31;5058768;28;19927;-59
2022/01/29 03:44:18;;;;;;;;;;;4.30;98.50;;;3.44;100.00;100537.50;5075868;28;19916;-59
2022/01/29 03:46:45;;;;;;;;;;;4.20;98.60;;;3.88;100.00;100591.66;5076641;28;19923;-58
2022/01/29 03:49:11;;;;;;;;;;;4.30;98.60;;;3.58;100.00;100552.44;5058705;28;19920;-58
2022/01/29 03:51:36;;;;;;;;;;;4.20;98.40;;;3.78;100.00;100588.53;5058294;28;20023;-59
2022/01/29 03:54:02;;;;;;;;;;;4.20;98.50;;;3.70;100.00;100570.03;5075741;28;20292;-59
2022/01/29 03:56:28;;;;;;;;;;;4.20;98.60;;;3.75;100.00;100579.22;5075981;28;20246;-59
2022/01/29 03:58:54;;;;;;;;;;;4.20;98.80;;;3.73;100.00;100580.13;5076143;28;20266;-59
2022/01/29 04:01:19;;;;;;;;;;;4.20;98.80;;;3.43;100.00;100533.25;5074693;28;19942;-59
2022/01/29 04:03:45;;;;;;;;;;;4.10;98.90;;;3.70;100.00;100572.56;5076014;28;19920;-59
2022/01/29 04:06:11;;;;;;;;;;;4.10;99.00;;;3.72;100.00;100568.25;5076071;28;19920;-59
2022/01/29 04:08:41;;;;;;;;;;;4.10;99.10;;;3.77;100.00;100571.53;5076140;28;20270;-59
2022/01/29 04:11:12;;;;;;;;;;;4.10;99.10;;;3.46;100.00;100540.81;5075957;28;19931;-59
2022/01/29 04:13:43;;;;;;;;;;;4.10;99.20;;;3.65;100.00;100556.50;5075708;28;19933;-59
2022/01/29 04:16:10;;;;;;;;;;;4.10;99.10;;;3.27;100.00;100488.59;5057833;28;19990;-59
2022/01/29 04:18:35;;;;;;;;;;;4.10;99.20;;;3.78;100.00;100579.16;5057601;28;19917;-59
2022/01/29 04:21:02;;;;;;;;;;;4.10;99.20;;;3.75;100.00;100574.13;5075875;28;19920;-58
2022/01/29 04:23:28;;;;;;;;;;;4.10;99.20;;;3.68;100.00;100572.59;5075505;28;20428;-59
2022/01/29 04:25:54;;;;;;;;;;;4.10;99.10;;;3.57;100.00;100536.28;5041161;28;19923;-59
2022/01/29 04:28:23;;;;;;;;;;;4.20;99.10;;;3.71;100.00;100553.81;5075338;28;19927;-59
2022/01/29 04:30:54;;;;;;;;;;;4.20;99.00;;;3.50;100.00;100511.81;5075355;28;19924;-58
2022/01/29 04:33:28;;;;;;;;;;;4.20;99.00;;;3.73;100.00;100541.84;5075482;28;19932;-59
2022/01/29 04:36:01;;;;;;;;;;;4.20;98.80;;;3.79;100.00;100528.91;5075294;28;19964;-59
2022/01/29 04:38:27;;;;;;;;;;;4.30;98.80;;;3.73;100.00;100532.47;5058451;28;19924;-59
2022/01/29 04:40:54;;;;;;;;;;;4.30;98.70;;;3.27;100.00;100453.75;5075386;28;19959;-58
2022/01/29 04:43:19;;;;;;;;;;;4.30;98.60;;;3.83;100.00;100554.34;5075096;28;19921;-60
2022/01/29 04:45:45;;;;;;;;;;;4.30;98.60;;;3.62;100.00;100520.88;5075223;28;19920;-59
2022/01/29 04:48:11;;;;;;;;;;;4.30;98.70;;;3.90;100.00;100561.84;5057577;28;20399;-59
2022/01/29 04:50:37;;;;;;;;;;;4.30;98.60;;;3.90;100.00;100566.94;5074907;28;20381;-58
2022/01/29 04:53:02;;;;;;;;;;;4.30;98.70;;;3.45;100.00;100493.25;5057477;28;19921;-59
2022/01/29 04:55:28;;;;;;;;;;;4.30;98.60;;;3.95;100.00;100583.00;5057094;28;19921;-59
2022/01/29 04:57:54;;;;;;;;;;;4.30;98.60;;;3.97;100.00;100583.75;5074644;28;19928;-59
2022/01/29 05:00:20;;;;;;;;;;;4.40;98.70;;;3.94;100.00;100573.66;5074465;28;19943;-71
2022/01/29 05:02:53;;;;;;;;;;;4.40;98.70;;;3.94;100.00;100577.03;5056953;28;20292;-58
2022/01/29 05:05:19;;;;;;;;;;;4.40;98.70;;;4.02;100.00;100590.44;5055943;28;19927;-58
2022/01/29 05:07:44;;;;;;;;;;;4.40;98.50;;;3.73;100.00;100554.59;5074942;28;19920;-59
2022/01/29 05:10:10;;;;;;;;;;;4.40;98.50;;;3.78;100.00;100558.75;5074789;28;19916;-58
2022/01/29 05:15:44;;;;;;;;;;;4.40;98.60;;;3.96;100.00;100590.59;5038846;28;20019;-59
2022/01/29 05:29:07;;;;;;;;;;;4.40;97.80;;;3.85;100.00;100597.69;5074200;28;19977;-59
2022/01/29 05:31:33;;;;;;;;;;;4.30;97.70;;;3.25;100.00;100485.25;5056243;28;20331;-59
2022/01/29 05:33:59;;;;;;;;;;;4.40;97.80;;;3.93;100.00;100582.19;5073030;28;19946;-58
2022/01/29 05:36:25;;;;;;;;;;;4.40;97.60;;;3.93;100.00;100572.81;5073951;28;20133;-59
2022/01/29 05:38:51;;;;;;;;;;;4.40;97.70;;;3.90;100.00;100569.50;5074272;28;20037;-59
2022/01/29 05:41:16;;;;;;;;;;;4.40;97.50;;;3.84;100.00;100570.50;5074189;28;19931;-59
2022/01/29 05:43:43;;;;;;;;;;;4.40;97.50;;;3.63;100.00;100528.47;5039550;28;19920;-59
2022/01/29 05:46:10;;;;;;;;;;;4.40;97.40;;;3.78;100.00;100561.28;5074211;28;19916;-58
2022/01/29 05:48:36;;;;;;;;;;;4.30;97.40;;;3.88;100.00;100573.78;5073568;28;20297;-59
2022/01/29 05:51:02;;;;;;;;;;;4.30;97.30;;;3.74;100.00;100576.69;5073823;28;19927;-58
2022/01/29 05:53:28;;;;;;;;;;;4.30;97.20;;;3.85;100.00;100572.19;5073878;28;19920;-59
2022/01/29 05:55:53;;;;;;;;;;;4.30;97.00;;;3.76;100.00;100563.03;5073944;28;19920;-59
2022/01/29 05:58:19;;;;;;;;;;;4.30;97.20;;;3.65;100.00;100557.34;5074065;28;20296;-58
2022/01/29 06:00:45;;;;;;;;;;;4.30;97.10;;;3.75;100.00;100570.72;5038870;28;19979;-58
2022/01/29 06:03:11;;;;;;;;;;;4.20;97.20;;;3.68;100.00;100559.00;5073677;28;19924;-59
2022/01/29 06:05:37;;;;;;;;;;;4.20;97.30;;;3.39;100.00;100521.44;5055835;28;19924;-58
2022/01/29 06:08:03;;;;;;;;;;;4.30;97.50;;;3.76;100.00;100559.66;5056038;28;19921;-59
2022/01/29 06:10:29;;;;;;;;;;;4.30;97.40;;;3.90;100.00;100564.38;5073692;28;19944;-59
2022/01/29 06:13:11;;;;;;;;;;;4.30;97.40;;;3.51;100.00;100494.78;5055810;28;20281;-58
2022/01/29 06:15:42;;;;;;;;;;;4.30;97.20;;;3.80;100.00;100551.00;5056791;28;19924;-59
2022/01/29 06:18:12;;;;;;;;;;;4.30;97.10;;;3.60;100.00;100512.44;5073735;28;19931;-59
2022/01/29 06:20:38;;;;;;;;;;;4.30;97.30;;;3.65;100.00;100539.50;5055903;28;19920;-59
2022/01/29 06:23:03;;;;;;;;;;;4.20;97.30;;;3.63;100.00;100548.06;5055522;28;19927;-59
2022/01/29 06:25:29;;;;;;;;;;;4.20;97.40;;;3.76;100.00;100546.88;5072108;28;20389;-59
2022/01/29 06:27:55;;;;;;;;;;;4.20;97.40;;;3.61;100.00;100516.66;5073958;28;19921;-59
2022/01/29 06:30:21;;;;;;;;;;;4.20;97.50;;;3.72;100.00;100538.44;5055729;28;20442;-58
2022/01/29 06:32:46;;;;;;;;;;;4.20;97.60;;;3.75;100.00;100546.03;5073073;28;20382;-59
2022/01/29 06:35:12;;;;;;;;;;;4.20;97.70;;;3.76;100.00;100552.00;5055673;28;19927;-58
2022/01/29 06:37:38;;;;;;;;;;;4.20;97.70;;;3.80;100.00;100556.13;5055338;28;19923;-60
2022/01/29 06:40:04;;;;;;;;;;;4.20;97.70;;;3.86;100.00;100553.44;5073230;28;20374;-58
2022/01/29 06:42:30;;;;;;;;;;;4.20;97.90;;;3.85;100.00;100566.22;5072872;28;20411;-59
2022/01/29 06:44:56;;;;;;;;;;;4.20;97.80;;;3.35;100.00;100479.03;5055386;28;19924;-59
2022/01/29 06:47:21;;;;;;;;;;;4.30;97.80;;;3.81;100.00;100560.34;5072152;28;19927;-58
2022/01/29 06:49:47;;;;;;;;;;;4.30;97.70;;;3.67;100.00;100532.63;5055297;28;19925;-59
2022/01/29 06:52:13;;;;;;;;;;;4.30;97.50;;;3.66;100.00;100525.03;5055575;28;19927;-59
2022/01/29 06:54:39;;;;;;;;;;;4.30;97.50;;;3.80;100.00;100536.53;5073221;28;19924;-59
2022/01/29 06:57:05;;;;;;;;;;;4.30;97.50;;;3.86;100.00;100542.38;5055579;28;19924;-58
2022/01/29 06:59:30;;;;;;;;;;;4.30;97.50;;;3.81;100.00;100543.31;5072941;28;19924;-59
2022/01/29 07:01:56;;;;;;;;;;;4.30;97.40;;;3.84;100.00;100522.00;5073438;28;19924;-58
2022/01/29 07:04:22;;;;;;;;;;;4.30;97.30;;;3.87;100.00;100529.56;5073285;28;20293;-58
2022/01/29 07:06:47;;;;;;;;;;;4.30;97.10;;;3.90;100.00;100532.03;5073061;28;19935;-59
2022/01/29 07:09:13;;;;;;;;;;;4.30;97.20;;;3.87;100.00;100537.22;5073189;28;19920;-59
2022/01/29 07:11:42;;;;;;;;;;;4.30;97.30;;;3.97;100.00;100540.34;5072940;28;20364;-59
2022/01/29 07:14:08;;;;;;;;;;;4.30;97.30;;;3.87;100.00;100532.09;5055638;28;20389;-59
2022/01/29 07:16:35;;;;;;;;;;;4.40;97.50;;;3.59;100.00;100475.03;5055042;28;19927;-59
2022/01/29 07:19:01;;;;;;;;;;;4.40;97.20;;;3.95;100.00;100526.81;5055325;28;19966;-58
2022/01/29 07:21:27;;;;;;;;;;;4.40;97.20;;;3.91;100.00;100502.25;5073111;28;20381;-59
2022/01/29 07:23:53;;;;;;;;;;;4.40;97.20;;;4.04;100.00;100521.44;5072951;28;19920;-59
2022/01/29 07:26:18;;;;;;;;;;;4.40;97.20;;;3.73;100.00;100494.19;5073036;28;19970;-58
2022/01/29 07:28:44;;;;;;;;;;;4.40;97.20;;;4.02;100.00;100506.19;5074494;28;19921;-59
2022/01/29 07:31:10;;;;;;;;;;;4.40;97.10;;;4.10;100.00;100511.06;5055384;28;19925;-59
2022/01/29 07:33:35;;;;;;;;;;;4.50;97.20;;;3.79;100.00;100472.75;5055269;28;19969;-59
2022/01/29 07:36:01;;;;;;;;;;;4.50;97.20;;;3.97;100.00;100518.22;5038788;28;19931;-58
2022/01/29 07:38:27;;;;;;;;;;;4.50;97.20;;;4.03;100.00;100528.28;5056632;28;20454;-59
2022/01/29 07:40:53;;;;;;;;;;;4.50;97.00;;;4.06;100.00;100507.75;5056011;28;19921;-59
2022/01/29 07:43:19;;;;;;;;;;;4.50;96.80;;;3.86;100.00;100471.75;5055748;28;19970;-59
2022/01/29 07:45:45;;;;;;;;;;;4.60;96.90;;;3.95;100.00;100478.31;5056190;28;19921;-59
2022/01/29 07:48:10;;;;;;;;;;;4.60;97.00;;;4.20;100.00;100526.09;5055224;28;20285;-58
2022/01/29 07:50:36;;;;;;;;;;;4.60;97.00;;;3.89;100.00;100471.63;5055014;28;19990;-59
2022/01/29 07:53:02;;;;;;;;;;;4.60;97.00;;;4.03;100.00;100486.59;5055219;28;19921;-58
2022/01/29 07:55:31;;;;;;;;;;;4.60;96.90;;;4.08;100.00;100482.19;5055080;28;19971;-59
2022/01/29 07:57:58;;;;;;;;;;;4.70;96.90;;;4.26;100.00;100506.38;5054690;28;19946;-59
2022/01/29 08:00:23;;;;;;;;;;;4.70;96.90;;;4.26;100.00;100524.25;5055114;28;19924;-59
2022/01/29 08:02:49;;;;;;;;;;;4.70;96.90;;;4.31;100.00;100502.81;5054663;28;20388;-58
2022/01/29 08:05:15;;;;;;;;;;;4.80;96.80;;;4.36;100.00;100507.78;5055032;28;19932;-59
2022/01/29 08:07:41;;;;;;;;;;;4.80;96.50;;;4.34;100.00;100489.94;5055862;28;19921;-59
2022/01/29 08:10:07;;;;;;;;;;;4.80;96.10;;;4.15;100.00;100483.69;5054855;28;19921;-59
2022/01/29 08:12:32;;;;;;;;;;;4.80;95.90;;;3.82;100.00;100475.25;5054582;28;19920;-60
2022/01/29 08:14:58;;;;;;;;;;;4.80;95.10;;;4.15;100.00;100479.41;5054697;28;20358;-59
2022/01/29 08:17:24;;;;;;;;;;;4.70;94.90;;;4.30;100.00;100482.41;5055805;28;19920;-59
2022/01/29 08:19:50;;;;;;;;;;;4.70;95.40;;;3.93;100.00;100434.09;5055554;28;19921;-59
2022/01/29 08:22:16;;;;;;;;;;;4.70;95.20;;;4.15;100.00;100473.47;5055802;28;20354;-59
2022/01/29 08:24:42;;;;;;;;;;;4.80;95.10;;;4.17;100.00;100452.13;5055606;28;19960;-59
2022/01/29 08:27:08;;;;;;;;;;;4.80;95.20;;;4.20;100.00;100474.16;5055654;28;20290;-59
2022/01/29 08:29:34;;;;;;;;;;;4.80;95.10;;;4.43;100.00;100478.63;5038869;28;19947;-59
2022/01/29 08:31:59;;;;;;;;;;;4.90;95.20;;;4.43;100.00;100479.47;5075685;28;19927;-59
2022/01/29 08:34:26;;;;;;;;;;;4.90;95.30;;;4.37;100.00;100466.84;5075386;28;19920;-58
2022/01/29 08:36:52;;;;;;;;;;;4.90;95.00;;;3.96;100.00;100395.69;5040799;28;19920;-59
2022/01/29 08:39:18;;;;;;;;;;;5.00;94.80;;;4.61;100.00;100479.78;5040844;28;20070;-59
2022/01/29 08:41:44;;;;;;;;;;;5.00;95.00;;;4.58;100.00;100479.00;5075207;28;19921;-59
2022/01/29 08:44:09;;;;;;;;;;;5.10;95.20;;;4.59;100.00;100462.78;5057580;28;19924;-59
2022/01/29 08:46:35;;;;;;;;;;;5.10;95.40;;;4.39;100.00;100424.22;5040648;28;20327;-59
2022/01/29 08:49:01;;;;;;;;;;;5.10;95.30;;;4.72;100.00;100467.50;5057353;28;19921;-59
2022/01/29 08:51:26;;;;;;;;;;;5.10;95.30;;;4.82;100.00;100469.75;5074943;28;19926;-58
2022/01/29 08:53:52;;;;;;;;;;;5.20;95.50;;;4.88;100.00;100459.31;5075266;28;19921;-59
2022/01/29 08:56:18;;;;;;;;;;;5.30;95.60;;;4.92;100.00;100463.47;5057061;28;20033;-59
2022/01/29 08:58:44;;;;;;;;;;;5.30;95.40;;;5.00;100.00;100468.31;5074702;28;19916;-59
2022/01/29 09:01:10;;;;;;;;;;;5.40;95.40;;;5.07;100.00;100468.97;5040577;28;19920;-58
2022/01/29 09:03:36;;;;;;;;;;;5.50;95.40;;;5.15;100.00;100472.94;5057010;28;20415;-59
2022/01/29 09:06:02;;;;;;;;;;;5.60;95.40;;;5.07;100.00;100468.97;5056773;28;19917;-59
2022/01/29 09:08:28;;;;;;;;;;;5.60;95.00;;;4.92;100.00;100455.78;5057035;28;20027;-59
2022/01/29 09:10:57;;;;;;;;;;;5.70;94.40;;;5.06;100.00;100464.72;5056749;28;19920;-59
2022/01/29 09:13:26;;;;;;;;;;;5.60;94.30;;;5.15;100.00;100464.44;5074751;28;19928;-59
2022/01/29 09:15:52;;;;;;;;;;;5.60;94.50;;;5.15;100.00;100456.75;5056531;28;19969;-59
2022/01/29 09:18:17;;;;;;;;;;;5.70;94.50;;;5.20;100.00;100453.16;5057070;28;19928;-59
2022/01/29 09:20:43;;;;;;;;;;;5.70;94.60;;;5.22;100.00;100453.94;5074456;28;19966;-59
2022/01/29 09:23:09;;;;;;;;;;;5.70;94.80;;;5.31;100.00;100455.34;5074734;28;19920;-59
2022/01/29 09:25:36;;;;;;;;;;;5.80;95.00;;;5.40;100.00;100454.22;5074409;28;19920;-59
2022/01/29 09:28:03;;;;;;;;;;;5.80;95.10;;;5.41;100.00;100449.03;5074461;28;19985;-59
2022/01/29 09:30:29;;;;;;;;;;;5.90;95.10;;;5.45;100.00;100444.63;5039454;28;19950;-59
2022/01/29 09:32:55;;;;;;;;;;;6.00;95.00;;;5.32;100.00;100424.59;5073903;28;19927;-59
2022/01/29 09:35:21;;;;;;;;;;;6.00;94.80;;;5.49;100.00;100436.81;5074377;28;19921;-59
2022/01/29 09:37:49;;;;;;;;;;;6.00;94.70;;;5.52;100.00;100431.56;5039009;28;21337;-59
2022/01/29 09:40:15;;;;;;;;;;;6.10;94.70;;;5.54;100.00;100429.81;5056428;28;19969;-59
2022/01/29 09:42:44;;;;;;;;;;;6.10;94.60;;;5.52;100.00;100438.44;5056126;28;19920;-59
2022/01/29 09:45:14;;;;;;;;;;;6.10;94.40;;;5.51;100.00;100437.59;5074098;28;19921;-59
2022/01/29 09:47:44;;;;;;;;;;;6.20;94.10;;;5.20;100.00;100389.19;5056123;28;20395;-60
2022/01/29 09:50:14;;;;;;;;;;;6.20;93.70;;;5.58;100.00;100413.47;5074157;28;19924;-63
2022/01/29 09:52:40;;;;;;;;;;;6.20;93.60;;;5.57;100.00;100388.75;5038824;28;19921;-59
2022/01/29 09:55:07;;;;;;;;;;;6.30;93.70;;;5.92;100.00;100432.78;5039608;28;19923;-59
2022/01/29 09:57:32;;;;;;;;;;;6.40;93.90;;;6.04;100.00;100430.59;5056043;28;19916;-59
2022/01/29 09:59:58;;;;;;;;;;;6.50;94.00;;;6.03;100.00;100418.66;5055421;28;19974;-59
2022/01/29 10:02:24;;;;;;;;;;;6.60;93.80;;;5.97;100.00;100395.00;5055886;28;19927;-59
2022/01/29 10:04:51;;;;;;;;;;;6.70;93.80;;;6.09;100.00;100404.81;5055841;28;19920;-59
2022/01/29 10:07:19;;;;;;;;;;;6.80;93.90;;;6.13;100.00;100408.91;5056019;28;20277;-59
2022/01/29 10:09:44;;;;;;;;;;;6.90;93.60;;;6.38;100.00;100432.72;5039096;28;20411;-59
2022/01/29 10:12:17;;;;;;;;;;;6.90;93.40;;;6.45;100.00;100430.75;5055896;28;20357;-59
2022/01/29 10:14:57;;;;;;;;;;;7.00;93.40;;;6.37;100.00;100391.75;5073582;28;19921;-59
2022/01/29 10:17:48;;;;;;;;;;;7.10;93.20;;;6.59;100.00;100423.34;5040423;28;19917;-59
2022/01/29 10:20:16;;;;;;;;;;;7.10;93.10;;;6.65;100.00;100422.28;5073683;28;19916;-59
2022/01/29 10:23:01;;;;;;;;;;;7.20;93.10;;;6.65;100.00;100417.16;5073101;28;20416;-60
2022/01/29 10:25:28;;;;;;;;;;;7.30;93.20;;;6.67;100.00;100408.50;5055869;28;19939;-59
2022/01/29 10:28:19;;;;;;;;;;;7.30;93.30;;;6.86;100.00;100400.91;5022576;28;19920;-59
2022/01/29 10:30:51;;;;;;;;;;;7.40;93.40;;;6.84;100.00;100403.53;5073341;28;19963;-59
2022/01/29 10:33:28;;;;;;;;;;;7.50;93.40;;;6.54;100.00;100358.59;5073694;28;19974;-59
2022/01/29 10:36:17;;;;;;;;;;;7.50;93.50;;;6.74;100.00;100388.59;5073296;28;19916;-59
2022/01/29 10:38:43;;;;;;;;;;;7.40;93.70;;;6.83;100.00;100395.91;5072634;28;19943;-59
2022/01/29 10:41:26;;;;;;;;;;;7.50;94.10;;;6.77;100.00;100376.47;5073808;28;19930;-59
2022/01/29 10:46:40;;;;;;;;;;;7.60;94.50;;;6.59;100.00;100350.75;5073474;28;19916;-59
2022/01/29 10:49:06;;;;;;;;;;;7.60;94.70;;;6.76;100.00;100376.53;5056101;28;20027;-59
2022/01/29 10:51:35;;;;;;;;;;;7.50;94.80;;;6.65;100.00;100345.38;5055628;28;20374;-59
2022/01/29 10:54:17;;;;;;;;;;;7.60;95.10;;;6.95;100.00;100381.75;5073180;28;19924;-59
2022/01/29 10:56:53;;;;;;;;;;;7.60;95.30;;;6.54;100.00;100314.19;5072765;28;20285;-60
2022/01/29 10:59:20;;;;;;;;;;;7.60;95.50;;;7.11;100.00;100396.44;5073368;28;19921;-59
2022/01/29 11:01:50;;;;;;;;;;;7.60;95.70;;;7.14;100.00;100398.03;5072701;28;20349;-59
2022/01/29 11:04:16;;;;;;;;;;;7.70;95.90;;;7.05;100.00;100362.50;5058316;28;19955;-59
2022/01/29 11:06:45;;;;;;;;;;;7.70;96.10;;;7.15;100.00;100364.63;5076791;28;19946;-73
2022/01/29 11:09:12;;;;;;;;;;;7.80;96.10;;;7.30;100.00;100375.97;5059890;28;19916;-59
2022/01/29 11:11:39;;;;;;;;;;;7.80;96.10;;;7.05;100.00;100332.53;5059274;28;19970;-59
2022/01/29 11:14:05;;;;;;;;;;;7.80;96.10;;;7.18;100.00;100331.13;5059213;28;19940;-59
2022/01/29 11:16:30;;;;;;;;;;;7.90;96.00;;;7.41;100.00;100371.19;5042400;28;20377;-59
2022/01/29 11:18:56;;;;;;;;;;;7.90;95.70;;;7.39;100.00;100369.59;5042304;28;20389;-59
2022/01/29 11:21:23;;;;;;;;;;;8.00;95.50;;;7.46;100.00;100350.47;5059320;28;20246;-59
2022/01/29 11:23:49;;;;;;;;;;;8.00;95.80;;;7.66;100.00;100365.00;5058673;28;20385;-59
2022/01/29 11:26:14;;;;;;;;;;;8.10;96.10;;;7.81;100.00;100369.44;5076803;28;19916;-59
2022/01/29 11:28:40;;;;;;;;;;;8.30;96.10;;;7.74;100.00;100342.38;5058548;28;19916;-57
2022/01/29 11:31:15;;;;;;;;;;;8.40;95.70;;;7.91;100.00;100366.38;5058290;28;19932;-57
2022/01/29 11:33:58;;;;;;;;;;;8.50;94.90;;;7.86;100.00;100365.75;5076699;28;20002;-57